Time;durP1;ratioP1;P1;durP2;ratioP2;P2;SDS_P1;SDS_P2;PMS_P1;PMS_P2;Temp;Humidity;BMP_temperature;BMP_pressure;BME280_temperature;BME280_humidity;BME280_pressure;Samples;Min_cycle;Max_cycle;Signal;HPM_P1;HPM_P2
2021/01/08 00:00:22;;;;;;;18.97;15.00;;;4.10;99.90;;;;;;5054725;28;20429;-71
2021/01/08 00:02:48;;;;;;;17.80;13.00;;;4.00;99.90;;;;;;5054961;28;20214;-72
2021/01/08 00:05:14;;;;;;;19.33;14.03;;;4.10;99.90;;;;;;5054728;28;20171;-71
2021/01/08 00:07:40;;;;;;;21.43;14.67;;;4.10;99.90;;;;;;5054893;28;20432;-72
2021/01/08 00:10:07;;;;;;;19.30;13.27;;;4.10;99.90;;;;;;5054804;28;20200;-72
2021/01/08 00:12:35;;;;;;;20.73;14.90;;;4.10;99.90;;;;;;5054430;28;20435;-72
2021/01/08 00:15:01;;;;;;;18.60;14.13;;;4.20;99.90;;;;;;5054279;28;20551;-71
2021/01/08 00:17:29;;;;;;;20.10;14.73;;;4.10;99.90;;;;;;5054448;28;20520;-72
2021/01/08 00:19:55;;;;;;;18.93;12.83;;;4.10;99.90;;;;;;5054692;28;20539;-71
2021/01/08 00:22:21;;;;;;;17.87;13.40;;;4.20;99.90;;;;;;5054289;28;20561;-72
2021/01/08 00:24:47;;;;;;;20.63;14.30;;;4.20;99.90;;;;;;5054601;28;20455;-71
2021/01/08 00:30:35;;;;;;;20.07;15.40;;;4.20;99.90;;;;;;5053971;28;20444;-73
2021/01/08 00:33:01;;;;;;;19.43;14.83;;;4.10;99.90;;;;;;5054527;28;20456;-73
2021/01/08 00:35:26;;;;;;;23.33;16.00;;;4.00;99.90;;;;;;5054210;28;20907;-73
2021/01/08 00:37:52;;;;;;;25.20;15.30;;;4.10;99.90;;;;;;5054437;28;20632;-73
2021/01/08 00:40:17;;;;;;;21.30;16.08;;;4.10;99.90;;;;;;5054020;28;20847;-69
2021/01/08 00:42:43;;;;;;;22.90;16.30;;;4.10;99.90;;;;;;5054001;28;20580;-69
2021/01/08 00:45:09;;;;;;;20.73;15.30;;;4.20;99.90;;;;;;5054336;28;20206;-69
2021/01/08 00:47:34;;;;;;;20.70;15.43;;;4.20;99.90;;;;;;5054590;28;20248;-72
2021/01/08 00:50:00;;;;;;;21.20;16.03;;;4.20;99.90;;;;;;5054236;28;20420;-72
2021/01/08 00:52:25;;;;;;;25.33;16.40;;;4.20;99.90;;;;;;5054164;28;20566;-72
2021/01/08 00:54:51;;;;;;;21.50;15.47;;;4.20;99.90;;;;;;5053890;28;20256;-72
2021/01/08 00:57:16;;;;;;;25.17;14.77;;;4.20;99.90;;;;;;5054113;28;20184;-72
2021/01/08 00:59:42;;;;;;;20.97;16.80;;;4.20;99.90;;;;;;5054125;28;20256;-72
2021/01/08 01:02:09;;;;;;;24.77;17.43;;;4.20;99.90;;;;;;5053696;28;20243;-72
2021/01/08 01:04:34;;;;;;;24.83;17.23;;;4.20;99.90;;;;;;5054021;28;20205;-72
2021/01/08 01:07:00;;;;;;;23.63;14.93;;;4.10;99.90;;;;;;5053678;28;20531;-72
2021/01/08 01:09:25;;;;;;;21.93;15.60;;;4.20;99.90;;;;;;5053688;28;20180;-72
2021/01/08 01:11:51;;;;;;;24.97;16.77;;;4.20;99.90;;;;;;5053898;28;20172;-71
2021/01/08 01:14:17;;;;;;;23.37;15.77;;;4.20;99.90;;;;;;5053585;28;20315;-71
2021/01/08 01:16:43;;;;;;;25.47;16.80;;;4.20;99.90;;;;;;5053507;28;20209;-71
2021/01/08 01:19:08;;;;;;;20.57;16.17;;;4.20;99.90;;;;;;5053524;28;20443;-71
2021/01/08 01:21:34;;;;;;;26.27;16.97;;;4.20;99.90;;;;;;5053375;28;20295;-71
2021/01/08 01:23:59;;;;;;;22.50;16.90;;;4.20;99.90;;;;;;5053735;28;20178;-71
2021/01/08 01:26:25;;;;;;;24.37;15.80;;;4.20;99.90;;;;;;5053657;28;20235;-71
2021/01/08 01:28:51;;;;;;;22.60;15.27;;;4.20;99.90;;;;;;5053681;28;20184;-68
2021/01/08 01:31:16;;;;;;;22.20;15.57;;;4.20;99.90;;;;;;5053347;28;20276;-70
2021/01/08 01:33:42;;;;;;;25.17;17.83;;;4.20;99.90;;;;;;5053617;28;20176;-69
2021/01/08 01:36:09;;;;;;;27.30;17.27;;;4.20;99.90;;;;;;5053336;28;20267;-71
2021/01/08 01:38:37;;;;;;;24.43;16.63;;;4.20;99.90;;;;;;5053608;28;20534;-71
2021/01/08 01:41:04;;;;;;;23.77;17.97;;;4.20;99.90;;;;;;5054638;28;20434;-71
2021/01/08 01:43:30;;;;;;;25.00;17.17;;;4.20;99.90;;;;;;5057452;28;20769;-71
2021/01/08 01:45:56;;;;;;;24.60;16.10;;;4.20;99.90;;;;;;5057634;28;20415;-71
2021/01/08 01:48:22;;;;;;;22.23;15.10;;;4.20;99.90;;;;;;5057617;28;20417;-71
2021/01/08 01:50:48;;;;;;;24.13;16.87;;;4.20;99.90;;;;;;5057324;28;20537;-71
2021/01/08 01:53:13;;;;;;;22.03;16.03;;;4.20;99.90;;;;;;5057574;28;20204;-71
2021/01/08 01:55:40;;;;;;;28.00;16.13;;;4.30;99.90;;;;;;5057574;28;20860;-71
2021/01/08 01:58:06;;;;;;;23.03;16.80;;;4.30;99.90;;;;;;5057510;28;20257;-71
2021/01/08 02:00:31;;;;;;;25.47;16.80;;;4.30;99.90;;;;;;5057419;28;20456;-71
2021/01/08 02:03:01;;;;;;;23.63;15.20;;;4.30;99.90;;;;;;5057428;28;20655;-71
2021/01/08 02:05:29;;;;;;;20.07;14.97;;;4.30;99.90;;;;;;5057332;28;20204;-71
2021/01/08 02:08:06;;;;;;;25.43;17.27;;;4.30;99.90;;;;;;5057322;28;20462;-71
2021/01/08 02:10:43;;;;;;;24.30;16.23;;;4.30;99.90;;;;;;5057196;28;20555;-71
2021/01/08 06:30:56;;;;;;;12.77;8.87;;;4.60;99.90;;;;;;5812307;23;20559;-68
2021/01/08 06:33:33;;;;;;;11.20;7.70;;;4.60;99.90;;;;;;5016536;28;20788;-66
2021/01/08 06:36:15;;;;;;;11.73;8.57;;;4.60;99.90;;;;;;5016532;28;21022;-66
2021/01/08 06:38:45;;;;;;;11.10;8.17;;;4.60;99.90;;;;;;5016584;28;20423;-66
2021/01/08 06:41:13;;;;;;;11.57;7.90;;;4.60;99.90;;;;;;5016405;28;20428;-68
2021/01/08 06:43:45;;;;;;;10.30;7.70;;;4.60;99.90;;;;;;5050838;22;20482;-63
2021/01/08 06:46:24;;;;;;;12.70;8.60;;;4.60;99.90;;;;;;5036169;28;20441;-66
2021/01/08 06:48:53;;;;;;;8.90;7.70;;;4.60;99.90;;;;;;5036156;28;20457;-66
2021/01/08 06:51:28;;;;;;;11.27;8.17;;;4.60;99.90;;;;;;5035973;28;20445;-66
2021/01/08 06:53:58;;;;;;;11.03;8.17;;;4.60;99.90;;;;;;5035860;28;20517;-65
2021/01/08 06:56:29;;;;;;;11.38;8.95;;;4.60;99.90;;;;;;5035374;28;20429;-65
2021/01/08 06:58:55;;;;;;;11.67;8.97;;;4.60;99.90;;;;;;5035861;28;20174;-66
2021/01/08 07:01:27;;;;;;;12.87;7.60;;;4.60;99.90;;;;;;5035840;28;20813;-66
2021/01/08 07:03:53;;;;;;;10.63;8.77;;;4.70;99.90;;;;;;5035781;28;20421;-66
2021/01/08 07:06:19;;;;;;;10.13;7.40;;;4.70;99.90;;;;;;5035808;28;20440;-66
2021/01/08 07:08:45;;;;;;;11.20;8.03;;;4.70;99.90;;;;;;5035788;28;20500;-66
2021/01/08 07:11:25;;;;;;;10.87;7.80;;;4.70;99.90;;;;;;5035705;28;20182;-63
2021/01/08 07:14:04;;;;;;;10.97;8.37;;;4.70;99.90;;;;;;5035687;28;20187;-63
2021/01/08 07:16:29;;;;;;;11.00;8.00;;;4.70;99.90;;;;;;5035556;28;20420;-64
2021/01/08 07:19:04;;;;;;;8.30;6.80;;;4.60;99.90;;;;;;5035485;28;20441;-64
2021/01/08 07:21:31;;;;;;;10.90;7.60;;;4.60;99.90;;;;;;5035436;28;20686;-65
2021/01/08 07:23:57;;;;;;;10.37;7.10;;;4.60;99.90;;;;;;5035365;28;20440;-66
2021/01/08 07:26:27;;;;;;;10.27;6.17;;;4.70;99.90;;;;;;5035033;28;20430;-66
2021/01/08 07:28:53;;;;;;;9.33;6.50;;;4.60;99.90;;;;;;5035188;28;20452;-66
2021/01/08 07:31:32;;;;;;;10.03;7.60;;;4.60;99.90;;;;;;5035158;28;20781;-65
2021/01/08 07:34:00;;;;;;;9.63;6.90;;;4.60;99.90;;;;;;5034986;28;20429;-66
2021/01/08 07:36:27;;;;;;;9.73;7.90;;;4.60;99.90;;;;;;5034990;28;20466;-66
2021/01/08 07:38:54;;;;;;;12.10;7.97;;;4.60;99.90;;;;;;5034264;28;20433;-65
2021/01/08 07:41:31;;;;;;;8.10;6.67;;;4.60;99.90;;;;;;5035013;28;20496;-66
2021/01/08 07:43:57;;;;;;;6.87;5.70;;;4.60;99.90;;;;;;5034745;28;20535;-66
2021/01/08 07:46:30;;;;;;;7.90;6.63;;;4.60;99.90;;;;;;5035034;28;20845;-66
2021/01/08 07:48:57;;;;;;;6.90;5.70;;;4.60;99.90;;;;;;5034885;28;20480;-66
2021/01/08 07:51:23;;;;;;;9.83;6.70;;;4.60;99.90;;;;;;5034945;28;20428;-66
2021/01/08 07:53:52;;;;;;;7.43;6.67;;;4.60;99.90;;;;;;5034822;28;20432;-66
2021/01/08 07:56:25;;;;;;;7.37;6.30;;;4.60;99.90;;;;;;5034753;28;20444;-66
2021/01/08 07:59:06;;;;;;;7.47;5.40;;;4.60;99.90;;;;;;5034782;28;20433;-66
2021/01/08 08:01:33;;;;;;;9.93;5.83;;;4.60;99.90;;;;;;5034768;28;20476;-66
2021/01/08 08:04:05;;;;;;;7.97;6.30;;;4.50;99.90;;;;;;5034668;28;20438;-66
2021/01/08 08:06:33;;;;;;;10.30;6.70;;;4.50;99.90;;;;;;5034777;28;20516;-65
2021/01/08 08:09:04;;;;;;;8.90;7.20;;;4.60;99.90;;;;;;5032203;28;20483;-65
2021/01/08 08:11:33;;;;;;;6.80;6.00;;;4.50;99.90;;;;;;5032350;28;20168;-67
2021/01/08 08:13:59;;;;;;;7.30;6.30;;;4.60;99.90;;;;;;5033107;28;20421;-66
2021/01/08 08:16:44;;;;;;;7.60;6.30;;;4.60;99.90;;;;;;5032748;28;20958;-66
2021/01/08 08:19:12;;;;;;;8.50;5.23;;;4.60;99.90;;;;;;5033148;28;20803;-66
2021/01/08 08:24:16;;;;;;;6.40;4.97;;;4.60;99.90;;;;;;4643816;22;20559;-68
2021/01/08 08:26:43;;;;;;;7.33;5.30;;;4.70;99.90;;;;;;5033301;28;20432;-68
2021/01/08 08:29:14;;;;;;;8.20;5.20;;;4.70;99.90;;;;;;5033202;28;20447;-67
2021/01/08 08:31:40;;;;;;;7.40;6.03;;;4.70;99.90;;;;;;5033396;28;20777;-66
2021/01/08 08:34:08;;;;;;;6.13;5.43;;;4.80;99.90;;;;;;5033226;28;20447;-67
2021/01/08 08:36:34;;;;;;;9.00;5.97;;;4.80;99.90;;;;;;5033273;28;20448;-67
2021/01/08 08:39:01;;;;;;;7.40;5.40;;;4.80;99.90;;;;;;5033171;28;20912;-67
2021/01/08 08:41:28;;;;;;;5.63;4.30;;;4.80;99.90;;;;;;5033153;28;20298;-67
2021/01/08 08:44:01;;;;;;;5.77;4.37;;;5.30;99.90;;;;;;5032841;28;20951;-66
2021/01/08 08:46:46;;;;;;;6.90;4.90;;;5.20;99.90;;;;;;5033134;28;20487;-66
2021/01/08 08:49:13;;;;;;;7.80;5.07;;;5.10;99.90;;;;;;5032807;28;20434;-67
2021/01/08 08:51:49;;;;;;;9.00;7.10;;;5.10;99.90;;;;;;5032778;28;20424;-67
2021/01/08 08:54:16;;;;;;;6.80;5.10;;;5.00;99.90;;;;;;5032660;28;20451;-66
2021/01/08 08:56:50;;;;;;;9.53;6.80;;;5.00;99.90;;;;;;5032736;28;20424;-66
2021/01/08 08:59:34;;;;;;;11.30;7.50;;;5.00;99.90;;;;;;5032595;28;20433;-67
2021/01/08 09:01:59;;;;;;;10.20;5.97;;;5.00;99.90;;;;;;5032522;28;20480;-67
2021/01/08 09:04:25;;;;;;;7.67;6.70;;;4.90;99.90;;;;;;5125941;22;20982;-66
2021/01/08 09:06:55;;;;;;;12.40;6.30;;;5.00;99.90;;;;;;5032803;28;20186;-66
2021/01/08 09:09:25;;;;;;;7.93;6.50;;;4.90;99.90;;;;;;5032584;28;20180;-67
2021/01/08 09:11:59;;;;;;;10.00;7.60;;;5.00;99.90;;;;;;5032535;28;20433;-67
2021/01/08 09:14:29;;;;;;;9.20;7.10;;;4.90;99.90;;;;;;5031485;28;20998;-66
2021/01/08 09:16:59;;;;;;;9.77;6.80;;;4.90;99.90;;;;;;5032380;28;20499;-66
2021/01/08 09:19:44;;;;;;;13.40;7.53;;;4.90;99.90;;;;;;5032680;28;20796;-66
2021/01/08 09:22:11;;;;;;;10.63;6.10;;;4.90;99.90;;;;;;5032617;28;20461;-67
2021/01/08 09:24:39;;;;;;;8.57;5.90;;;4.90;99.90;;;;;;5032390;28;20433;-66
2021/01/08 09:27:07;;;;;;;9.20;6.87;;;4.90;99.90;;;;;;5032419;28;20788;-66
2021/01/08 09:29:34;;;;;;;8.50;5.30;;;5.00;99.90;;;;;;5032458;28;20598;-67
2021/01/08 09:32:02;;;;;;;8.73;5.87;;;4.90;99.90;;;;;;5032368;28;20448;-67
2021/01/08 09:34:28;;;;;;;10.20;6.13;;;5.00;99.90;;;;;;5032395;28;20784;-66
2021/01/08 09:36:56;;;;;;;10.30;5.73;;;5.00;99.90;;;;;;5032243;28;20437;-66
2021/01/08 09:39:22;;;;;;;7.57;6.03;;;5.00;99.90;;;;;;5032101;28;20761;-66
2021/01/08 09:41:59;;;;;;;7.27;5.77;;;5.00;99.90;;;;;;5032157;28;20474;-67
2021/01/08 09:44:32;;;;;;;7.50;5.33;;;5.00;99.90;;;;;;5032277;28;20421;-66
2021/01/08 09:46:59;;;;;;;5.30;4.30;;;5.00;99.90;;;;;;5032036;28;20428;-66
2021/01/08 09:49:42;;;;;;;9.80;6.00;;;5.00;99.90;;;;;;5032273;28;20425;-67
2021/01/08 09:52:10;;;;;;;7.37;5.40;;;5.00;99.90;;;;;;5032018;28;20436;-67
2021/01/08 09:54:46;;;;;;;8.47;5.90;;;5.10;99.90;;;;;;5032034;28;20425;-66
2021/01/08 09:57:37;;;;;;;6.83;5.47;;;5.10;99.90;;;;;;5032132;28;20465;-76
2021/01/08 10:00:08;;;;;;;6.53;5.10;;;5.10;99.90;;;;;;5032395;28;20824;-78
2021/01/08 10:02:40;;;;;;;9.60;5.40;;;5.10;99.90;;;;;;5033831;28;20559;-74
2021/01/08 10:05:22;;;;;;;5.50;4.23;;;5.10;99.90;;;;;;5035697;28;20472;-74
2021/01/08 10:07:49;;;;;;;6.80;5.80;;;5.20;99.90;;;;;;5036153;28;20516;-74
2021/01/08 10:10:16;;;;;;;6.50;4.90;;;5.20;99.90;;;;;;5035876;28;20429;-77
2021/01/08 10:12:46;;;;;;;7.13;5.50;;;5.20;99.90;;;;;;5036066;28;20441;-83
2021/01/08 10:15:17;;;;;;;7.60;6.03;;;5.20;99.90;;;;;;5035945;28;20796;-77
2021/01/08 10:17:50;;;;;;;8.63;5.30;;;5.20;99.90;;;;;;5036176;28;20422;-77
2021/01/08 10:20:17;;;;;;;8.50;6.40;;;5.30;99.90;;;;;;5035638;28;20421;-77
2021/01/08 10:22:49;;;;;;;10.07;6.40;;;5.30;99.90;;;;;;5035721;28;20999;-85
2021/01/08 10:25:27;;;;;;;9.90;6.60;;;5.30;99.90;;;;;;5035801;28;20463;-79
2021/01/08 10:27:53;;;;;;;7.30;5.30;;;5.30;99.90;;;;;;5035868;28;20437;-81
2021/01/08 10:30:19;;;;;;;8.83;5.90;;;5.30;99.90;;;;;;5036238;28;20418;-82
2021/01/08 10:32:48;;;;;;;8.00;6.63;;;5.30;99.90;;;;;;5035700;28;20429;-81
2021/01/08 10:35:17;;;;;;;10.00;6.60;;;5.30;99.90;;;;;;5035628;28;20450;-82
2021/01/08 10:37:43;;;;;;;11.10;6.00;;;5.30;99.90;;;;;;5035525;28;20433;-81
2021/01/08 10:40:09;;;;;;;6.80;5.50;;;5.30;99.90;;;;;;5035365;28;20428;-82
2021/01/08 10:42:35;;;;;;;8.23;6.40;;;5.30;99.90;;;;;;5035362;28;20474;-81
2021/01/08 10:45:00;;;;;;;13.00;7.33;;;5.30;99.90;;;;;;5035447;28;20304;-79
2021/01/08 10:47:26;;;;;;;7.80;5.50;;;5.30;99.90;;;;;;5035466;28;20190;-79
2021/01/08 10:49:53;;;;;;;8.93;5.37;;;5.30;99.90;;;;;;5035371;28;20175;-80
2021/01/08 10:52:19;;;;;;;7.27;5.53;;;5.30;99.90;;;;;;5035200;28;20183;-79
2021/01/08 10:54:44;;;;;;;7.67;5.97;;;5.30;99.90;;;;;;5035235;28;20571;-79
2021/01/08 10:57:10;;;;;;;11.30;6.67;;;5.30;99.90;;;;;;5035127;28;20187;-78
2021/01/08 10:59:35;;;;;;;8.20;5.83;;;5.30;99.90;;;;;;5035109;28;20165;-80
2021/01/08 11:02:01;;;;;;;6.17;5.30;;;5.30;99.90;;;;;;5028978;28;20210;-79
2021/01/08 11:04:26;;;;;;;5.67;5.07;;;5.30;99.90;;;;;;5028130;28;20212;-81
2021/01/08 11:06:56;;;;;;;8.53;5.80;;;5.30;99.90;;;;;;5023255;28;20176;-81
2021/01/08 11:09:21;;;;;;;8.30;6.17;;;5.30;99.90;;;;;;5022105;28;20202;-81
2021/01/08 11:11:47;;;;;;;11.30;6.20;;;5.30;99.90;;;;;;5031745;28;20430;-81
2021/01/08 11:14:13;;;;;;;10.50;6.30;;;5.30;99.90;;;;;;5020924;28;20701;-81
2021/01/08 11:16:38;;;;;;;7.23;5.33;;;5.30;99.90;;;;;;5022696;28;20245;-81
2021/01/08 11:19:03;;;;;;;7.10;4.73;;;5.30;99.90;;;;;;5024915;28;20635;-81
2021/01/08 11:21:29;;;;;;;9.40;6.00;;;5.30;99.90;;;;;;5029542;28;20215;-82
2021/01/08 11:23:54;;;;;;;6.80;5.10;;;5.30;99.90;;;;;;5018810;28;20602;-82
2021/01/08 11:26:29;;;;;;;6.10;5.07;;;5.30;99.90;;;;;;5030891;28;20259;-82
2021/01/08 11:28:56;;;;;;;6.90;4.37;;;5.30;99.90;;;;;;5024727;28;20178;-81
2021/01/08 11:31:29;;;;;;;10.63;4.67;;;5.30;99.90;;;;;;5022056;28;20478;-72
2021/01/08 11:33:55;;;;;;;7.27;4.57;;;5.40;99.90;;;;;;5031491;28;20424;-72
2021/01/08 11:36:20;;;;;;;10.20;5.40;;;5.50;99.90;;;;;;5019656;28;20437;-72
2021/01/08 11:38:46;;;;;;;7.90;4.90;;;5.60;99.90;;;;;;5026848;28;20169;-72
2021/01/08 11:41:11;;;;;;;6.23;4.80;;;5.60;99.90;;;;;;5024725;28;20190;-72
2021/01/08 11:43:38;;;;;;;6.57;5.17;;;5.70;99.90;;;;;;5024040;28;20171;-73
2021/01/08 11:46:03;;;;;;;6.77;4.90;;;5.70;99.90;;;;;;5024740;28;20168;-74
2021/01/08 11:48:29;;;;;;;6.13;4.83;;;5.80;99.90;;;;;;5029850;28;21002;-74
2021/01/08 11:50:54;;;;;;;6.23;5.13;;;5.80;99.90;;;;;;5023831;28;20184;-73
2021/01/08 11:53:20;;;;;;;5.47;4.20;;;5.80;99.90;;;;;;5024406;28;20624;-74
2021/01/08 11:55:45;;;;;;;5.07;4.57;;;5.80;99.90;;;;;;5020887;28;20275;-74
2021/01/08 11:58:10;;;;;;;12.03;7.17;;;5.80;99.90;;;;;;5028528;28;20222;-73
2021/01/08 12:00:36;;;;;;;6.10;4.90;;;5.80;99.90;;;;;;5025647;28;20173;-74
2021/01/08 12:03:01;;;;;;;6.60;5.00;;;5.70;99.90;;;;;;5023333;28;20219;-73
2021/01/08 12:05:27;;;;;;;6.23;4.43;;;5.70;99.90;;;;;;5025491;28;20240;-73
2021/01/08 12:07:52;;;;;;;7.90;5.20;;;5.70;99.90;;;;;;5022979;28;20696;-73
2021/01/08 12:10:18;;;;;;;6.03;4.70;;;5.60;99.90;;;;;;5024370;28;20168;-73
2021/01/08 12:12:47;;;;;;;8.40;5.40;;;5.60;99.90;;;;;;5020789;28;20205;-73
2021/01/08 12:15:14;;;;;;;5.87;4.67;;;5.60;99.90;;;;;;5025169;28;20657;-73
2021/01/08 12:17:40;;;;;;;7.23;4.93;;;5.60;99.90;;;;;;5025070;28;20490;-78
2021/01/08 12:20:06;;;;;;;6.40;4.73;;;5.60;99.90;;;;;;5020910;28;20932;-78
2021/01/08 12:22:33;;;;;;;6.40;4.90;;;5.50;99.90;;;;;;5023847;28;20489;-78
2021/01/08 12:24:58;;;;;;;5.43;4.50;;;5.50;99.90;;;;;;5025572;28;20419;-78
2021/01/08 12:27:25;;;;;;;7.37;5.80;;;5.50;99.90;;;;;;5014437;28;20926;-78
2021/01/08 12:29:51;;;;;;;7.37;4.93;;;5.50;99.90;;;;;;5014168;28;20267;-78
2021/01/08 12:32:16;;;;;;;6.33;4.10;;;5.50;99.90;;;;;;5016907;28;20484;-85
2021/01/08 12:34:42;;;;;;;9.30;5.37;;;5.50;99.90;;;;;;5020714;28;20180;-77
2021/01/08 12:37:07;;;;;;;5.60;4.10;;;5.50;99.90;;;;;;5022881;28;20182;-78
2021/01/08 12:39:34;;;;;;;7.77;5.57;;;5.50;99.90;;;;;;5019799;28;20186;-80
2021/01/08 12:42:01;;;;;;;10.30;5.50;;;5.50;99.90;;;;;;5024726;28;20214;-78
2021/01/08 12:44:26;;;;;;;7.40;5.83;;;5.40;99.90;;;;;;5022589;28;20431;-79
2021/01/08 12:46:56;;;;;;;11.33;7.87;;;5.40;99.90;;;;;;5023625;28;20494;-76
2021/01/08 12:49:21;;;;;;;8.37;6.10;;;5.40;99.90;;;;;;5022318;28;20263;-77
2021/01/08 12:51:49;;;;;;;9.57;6.20;;;5.40;99.90;;;;;;5026811;28;20572;-81
2021/01/08 12:54:15;;;;;;;7.80;5.90;;;5.40;99.90;;;;;;5032932;28;20542;-77
2021/01/08 12:56:40;;;;;;;8.53;6.57;;;5.40;99.90;;;;;;5026292;28;20430;-75
2021/01/08 12:59:06;;;;;;;8.00;5.20;;;5.40;99.90;;;;;;5028946;28;20188;-78
2021/01/08 13:01:31;;;;;;;6.70;5.00;;;5.40;99.90;;;;;;5020881;28;20570;-82
2021/01/08 13:03:57;;;;;;;6.40;5.33;;;5.40;99.90;;;;;;5019414;28;20213;-77
2021/01/08 13:06:27;;;;;;;10.17;6.30;;;5.40;99.90;;;;;;5017853;28;20210;-78
2021/01/08 13:08:55;;;;;;;12.97;5.43;;;5.40;99.90;;;;;;5012884;28;20506;-78
2021/01/08 13:11:21;;;;;;;7.70;5.80;;;5.40;99.90;;;;;;5012829;28;20789;-78
2021/01/08 13:13:47;;;;;;;7.83;6.10;;;5.40;99.90;;;;;;5012905;28;20427;-79
2021/01/08 13:16:19;;;;;;;9.10;7.03;;;5.40;99.90;;;;;;5012761;28;20435;-79
2021/01/08 13:18:45;;;;;;;9.37;6.33;;;5.40;99.90;;;;;;5023229;28;20842;-79
2021/01/08 13:21:11;;;;;;;8.33;5.87;;;5.40;99.90;;;;;;5021306;28;20530;-72
2021/01/08 13:23:36;;;;;;;6.50;5.30;;;5.40;99.90;;;;;;5023797;28;20184;-84
2021/01/08 13:26:02;;;;;;;9.93;6.70;;;5.40;99.90;;;;;;5023078;28;20431;-80
2021/01/08 13:28:27;;;;;;;8.13;6.13;;;5.40;99.90;;;;;;5022520;28;20187;-80
2021/01/08 13:30:53;;;;;;;8.70;6.47;;;5.40;99.90;;;;;;5021147;28;20180;-80
2021/01/08 13:33:18;;;;;;;14.17;8.73;;;5.40;99.90;;;;;;5021263;28;20620;-80
2021/01/08 13:35:44;;;;;;;15.20;10.33;;;5.40;99.90;;;;;;5022344;28;20172;-82
2021/01/08 13:38:09;;;;;;;10.30;7.43;;;5.40;99.90;;;;;;5010882;28;20176;-81
2021/01/08 13:40:35;;;;;;;13.73;7.57;;;5.40;99.90;;;;;;5012894;28;20183;-83
2021/01/08 13:43:00;;;;;;;8.97;6.20;;;5.40;99.90;;;;;;5013294;28;20220;-83
2021/01/08 13:45:26;;;;;;;10.90;7.70;;;5.40;99.90;;;;;;5016408;28;20174;-82
2021/01/08 13:47:51;;;;;;;20.30;11.50;;;5.30;99.90;;;;;;5014405;28;20657;-81
2021/01/08 13:50:17;;;;;;;16.57;8.73;;;5.30;99.90;;;;;;5016922;28;20263;-78
2021/01/08 13:52:44;;;;;;;15.80;8.77;;;5.30;99.90;;;;;;5012354;28;20192;-80
2021/01/08 13:55:10;;;;;;;8.43;7.20;;;5.40;99.90;;;;;;5012331;28;20183;-78
2021/01/08 13:57:36;;;;;;;11.50;6.73;;;5.40;99.90;;;;;;5012388;28;20468;-77
2021/01/08 14:00:04;;;;;;;10.10;6.93;;;5.40;99.90;;;;;;5012370;28;20853;-77
2021/01/08 14:02:30;;;;;;;9.93;6.83;;;5.30;99.90;;;;;;5012215;28;20221;-78
2021/01/08 14:04:56;;;;;;;9.43;8.00;;;5.30;99.90;;;;;;5013264;28;20470;-84
2021/01/08 14:07:21;;;;;;;8.83;6.53;;;5.30;99.90;;;;;;5013012;28;20241;-85
2021/01/08 14:09:47;;;;;;;12.40;7.40;;;5.30;99.90;;;;;;5012705;28;20252;-81
2021/01/08 14:12:12;;;;;;;9.30;6.60;;;5.30;99.90;;;;;;5012043;28;20267;-83
2021/01/08 14:14:38;;;;;;;11.90;8.90;;;5.20;99.90;;;;;;5012253;28;20252;-83
2021/01/08 14:17:03;;;;;;;11.27;8.03;;;5.20;99.90;;;;;;5013030;28;20175;-83
2021/01/08 14:19:29;;;;;;;9.27;6.80;;;5.30;99.90;;;;;;5013003;28;20179;-83
2021/01/08 14:21:56;;;;;;;11.00;7.17;;;5.20;99.90;;;;;;5013124;28;20291;-83
2021/01/08 14:24:21;;;;;;;7.40;5.80;;;5.30;99.90;;;;;;5013200;28;20674;-83
2021/01/08 14:26:47;;;;;;;6.80;5.03;;;5.30;99.90;;;;;;5013239;28;20517;-83
2021/01/08 14:29:12;;;;;;;7.23;4.80;;;5.40;99.90;;;;;;5013151;28;20185;-83
2021/01/08 14:31:39;;;;;;;5.60;4.30;;;5.30;99.90;;;;;;5013307;28;20638;-83
2021/01/08 14:34:07;;;;;;;7.50;5.40;;;5.40;99.90;;;;;;5011885;28;20279;-82
2021/01/08 14:36:37;;;;;;;6.90;4.93;;;5.30;99.90;;;;;;5013059;28;20427;-83
2021/01/08 14:39:05;;;;;;;7.57;5.80;;;5.30;99.90;;;;;;5012844;28;20522;-83
2021/01/08 14:41:31;;;;;;;9.93;5.87;;;5.30;99.90;;;;;;5013087;28;20439;-83
2021/01/08 14:43:57;;;;;;;6.00;4.80;;;5.30;99.90;;;;;;5013640;28;21000;-85
2021/01/08 14:46:22;;;;;;;8.17;5.40;;;5.30;99.90;;;;;;5013147;28;20537;-82
2021/01/08 14:48:48;;;;;;;5.93;4.93;;;5.40;99.90;;;;;;5017257;28;21201;-83
2021/01/08 14:51:23;;;;;;;9.10;5.50;;;5.40;99.90;;;;;;5031899;28;20176;-84
2021/01/08 14:53:48;;;;;;;6.93;5.43;;;5.40;99.90;;;;;;5019499;28;20586;-81
2021/01/08 14:56:14;;;;;;;8.03;5.63;;;5.40;99.90;;;;;;5026448;28;20418;-84
2021/01/08 14:58:39;;;;;;;6.83;4.47;;;5.40;99.90;;;;;;5016503;28;20197;-84
2021/01/08 15:01:05;;;;;;;9.43;5.50;;;5.40;99.90;;;;;;5016255;28;20180;-84
2021/01/08 15:03:30;;;;;;;7.17;5.53;;;5.40;99.90;;;;;;5016129;28;20243;-84
2021/01/08 15:05:56;;;;;;;7.23;5.50;;;5.40;99.90;;;;;;5015981;28;20223;-84
2021/01/08 15:08:22;;;;;;;5.87;4.00;;;5.30;99.90;;;;;;5014801;28;20267;-84
2021/01/08 15:10:55;;;;;;;5.50;4.17;;;5.40;99.90;;;;;;5016077;28;20176;-83
2021/01/08 15:13:21;;;;;;;6.23;4.93;;;5.40;99.90;;;;;;5015831;28;20171;-84
2021/01/08 15:15:46;;;;;;;5.40;4.43;;;5.30;99.90;;;;;;5016716;28;20910;-82
2021/01/08 15:18:12;;;;;;;5.63;4.17;;;5.30;99.90;;;;;;5016537;28;20441;-84
2021/01/08 15:20:41;;;;;;;5.43;4.30;;;5.30;99.90;;;;;;5016006;28;20183;-84
2021/01/08 15:23:07;;;;;;;5.83;4.43;;;5.30;99.90;;;;;;5016084;28;20667;-84
2021/01/08 15:25:32;;;;;;;6.60;5.00;;;5.20;99.90;;;;;;5016090;28;20783;-84
2021/01/08 15:27:58;;;;;;;4.63;4.03;;;5.20;99.90;;;;;;5024463;28;20270;-78
2021/01/08 15:30:23;;;;;;;6.10;4.37;;;5.20;99.90;;;;;;5035476;28;20176;-77
2021/01/08 15:32:49;;;;;;;4.87;4.03;;;5.20;99.90;;;;;;5027468;28;20744;-77
2021/01/08 15:35:14;;;;;;;5.23;4.47;;;5.20;99.90;;;;;;5029412;28;20278;-77
2021/01/08 15:37:40;;;;;;;5.17;4.30;;;5.10;99.90;;;;;;5015349;28;20187;-76
2021/01/08 15:40:06;;;;;;;5.17;4.10;;;5.20;99.90;;;;;;5016862;28;20183;-77
2021/01/08 15:42:31;;;;;;;5.97;4.03;;;5.10;99.90;;;;;;5035216;28;20215;-77
2021/01/08 15:44:57;;;;;;;4.93;3.93;;;5.10;99.90;;;;;;5024127;28;20442;-77
2021/01/08 15:47:22;;;;;;;5.23;4.70;;;5.10;99.90;;;;;;5025407;28;20178;-77
2021/01/08 15:49:48;;;;;;;5.50;3.93;;;5.10;99.90;;;;;;5021630;28;20183;-77
2021/01/08 15:52:13;;;;;;;5.33;4.27;;;5.10;99.90;;;;;;5017009;28;20656;-77
2021/01/08 15:54:39;;;;;;;7.50;4.63;;;5.10;99.90;;;;;;5029355;28;20544;-76
2021/01/08 15:57:04;;;;;;;7.37;5.13;;;5.10;99.90;;;;;;5024645;28;20178;-77
2021/01/08 15:59:30;;;;;;;5.23;4.30;;;5.10;99.90;;;;;;5021669;28;20184;-77
2021/01/08 16:01:55;;;;;;;6.47;4.53;;;5.00;99.90;;;;;;5026667;28;20288;-76
2021/01/08 16:04:21;;;;;;;8.07;4.90;;;5.00;99.90;;;;;;5017784;28;20302;-76
2021/01/08 16:06:47;;;;;;;6.33;4.80;;;5.00;99.90;;;;;;5034669;28;20175;-76
2021/01/08 16:09:13;;;;;;;8.43;5.00;;;5.00;99.90;;;;;;5034660;28;20173;-77
2021/01/08 16:11:38;;;;;;;5.47;4.47;;;5.00;99.90;;;;;;5021693;28;20457;-77
2021/01/08 16:14:05;;;;;;;5.57;4.43;;;5.00;99.90;;;;;;5026231;28;20167;-77
2021/01/08 16:16:30;;;;;;;7.27;5.00;;;5.00;99.90;;;;;;5027523;28;20196;-76
2021/01/08 16:18:56;;;;;;;7.87;4.70;;;5.00;99.90;;;;;;5033296;28;20425;-77
2021/01/08 16:21:21;;;;;;;7.47;5.70;;;5.00;99.90;;;;;;5034248;28;20186;-77
2021/01/08 16:23:47;;;;;;;6.57;4.53;;;5.00;99.90;;;;;;5034311;28;20694;-77
2021/01/08 16:26:12;;;;;;;5.67;4.70;;;5.00;99.90;;;;;;5034141;28;20207;-77
2021/01/08 16:28:38;;;;;;;4.97;4.47;;;5.00;99.90;;;;;;5034178;28;20183;-76
2021/01/08 16:31:03;;;;;;;5.70;4.33;;;5.00;99.90;;;;;;5034157;28;20182;-76
2021/01/08 16:33:29;;;;;;;4.63;4.03;;;5.00;99.90;;;;;;5034146;28;20186;-76
2021/01/08 16:35:55;;;;;;;6.57;4.60;;;5.00;99.90;;;;;;5034020;28;20175;-76
2021/01/08 16:38:24;;;;;;;6.17;4.67;;;5.00;99.90;;;;;;5034083;28;20293;-77
2021/01/08 16:40:51;;;;;;;6.30;5.00;;;5.00;99.90;;;;;;5033670;28;20429;-77
2021/01/08 16:43:17;;;;;;;6.87;5.40;;;5.00;99.90;;;;;;5033778;28;20481;-77
2021/01/08 16:45:42;;;;;;;6.70;5.17;;;5.00;99.90;;;;;;5033771;28;20931;-77
2021/01/08 16:48:09;;;;;;;8.07;5.63;;;5.00;99.90;;;;;;5033783;28;20225;-76
2021/01/08 16:50:34;;;;;;;5.97;4.97;;;5.00;99.90;;;;;;5033830;28;20183;-76
2021/01/08 16:53:00;;;;;;;7.77;5.30;;;5.00;99.90;;;;;;5030195;28;20765;-76
2021/01/08 16:55:25;;;;;;;7.07;5.90;;;5.00;99.90;;;;;;5022102;28;20195;-73
2021/01/08 16:57:51;;;;;;;9.47;5.80;;;5.00;99.90;;;;;;5022462;28;20175;-74
2021/01/08 17:00:17;;;;;;;7.63;5.60;;;5.00;99.90;;;;;;5021161;28;20175;-73
2021/01/08 17:02:44;;;;;;;10.00;7.17;;;5.00;99.90;;;;;;5022479;28;20508;-73
2021/01/08 17:05:10;;;;;;;10.07;7.27;;;4.90;99.90;;;;;;5021062;28;20469;-73
2021/01/08 17:07:35;;;;;;;11.03;7.83;;;4.90;99.90;;;;;;5023079;28;20942;-77
2021/01/08 17:10:02;;;;;;;10.67;7.63;;;4.90;99.90;;;;;;5012991;28;20187;-76
2021/01/08 17:12:28;;;;;;;11.90;8.60;;;4.80;99.90;;;;;;5020150;28;20180;-76
2021/01/08 17:14:53;;;;;;;12.90;7.67;;;4.80;99.90;;;;;;5021390;28;20951;-76